sensor_id;sensor_type;location;lat;lon;timestamp;pressure;altitude;pressure_sealevel;temperature;humidity
47985;BME280;33753;52.912;-7.342;2023-04-21T00:02:03;100676.09;;;5.15;100.00
47985;BME280;33753;52.912;-7.342;2023-04-21T00:04:32;100673.69;;;5.12;100.00
47985;BME280;33753;52.912;-7.342;2023-04-21T00:07:01;100669.56;;;5.08;100.00
47985;BME280;33753;52.912;-7.342;2023-04-21T00:09:30;100667.38;;;5.01;100.00
47985;BME280;33753;52.912;-7.342;2023-04-21T00:11:59;100663.03;;;5.00;100.00
47985;BME280;33753;52.912;-7.342;2023-04-21T00:14:28;100671.78;;;5.02;100.00
47985;BME280;33753;52.912;-7.342;2023-04-21T00:16:56;100666.13;;;5.06;100.00
47985;BME280;33753;52.912;-7.342;2023-04-21T00:19:25;100672.25;;;5.08;100.00
47985;BME280;33753;52.912;-7.342;2023-04-21T00:21:54;100663.41;;;5.17;100.00
47985;BME280;33753;52.912;-7.342;2023-04-21T00:24:25;100661.19;;;5.22;100.00
47985;BME280;33753;52.912;-7.342;2023-04-21T00:26:53;100655.41;;;5.27;100.00
47985;BME280;33753;52.912;-7.342;2023-04-21T00:29:23;100658.69;;;5.30;100.00
47985;BME280;33753;52.912;-7.342;2023-04-21T00:31:51;100651.34;;;5.32;100.00
47985;BME280;33753;52.912;-7.342;2023-04-21T00:34:19;100655.59;;;5.35;100.00
47985;BME280;33753;52.912;-7.342;2023-04-21T00:36:48;100654.78;;;5.34;100.00
47985;BME280;33753;52.912;-7.342;2023-04-21T00:39:16;100660.25;;;5.33;100.00
47985;BME280;33753;52.912;-7.342;2023-04-21T00:41:45;100656.16;;;5.39;100.00
47985;BME280;33753;52.912;-7.342;2023-04-21T00:44:14;100661.53;;;5.39;100.00
47985;BME280;33753;52.912;-7.342;2023-04-21T00:46:45;100656.16;;;5.39;100.00
47985;BME280;33753;52.912;-7.342;2023-04-21T00:49:14;100656.44;;;5.35;100.00
47985;BME280;33753;52.912;-7.342;2023-04-21T00:51:43;100660.97;;;5.35;100.00
47985;BME280;33753;52.912;-7.342;2023-04-21T00:54:11;100662.06;;;5.32;100.00
47985;BME280;33753;52.912;-7.342;2023-04-21T00:56:40;100664.75;;;5.32;100.00
47985;BME280;33753;52.912;-7.342;2023-04-21T00:59:08;100662.34;;;5.29;100.00
47985;BME280;33753;52.912;-7.342;2023-04-21T01:01:39;100662.16;;;5.21;100.00
47985;BME280;33753;52.912;-7.342;2023-04-21T01:04:09;100661.13;;;5.12;100.00
47985;BME280;33753;52.912;-7.342;2023-04-21T01:06:37;100673.56;;;5.13;100.00
47985;BME280;33753;52.912;-7.342;2023-04-21T01:09:06;100666.06;;;5.17;100.00
47985;BME280;33753;52.912;-7.342;2023-04-21T01:11:35;100667.78;;;5.18;100.00
47985;BME280;33753;52.912;-7.342;2023-04-21T01:14:06;100661.19;;;5.22;100.00
47985;BME280;33753;52.912;-7.342;2023-04-21T01:16:36;100662.75;;;5.25;100.00
47985;BME280;33753;52.912;-7.342;2023-04-21T01:19:04;100665.16;;;5.28;100.00
47985;BME280;33753;52.912;-7.342;2023-04-21T01:21:38;100658.97;;;5.27;100.00
47985;BME280;33753;52.912;-7.342;2023-04-21T01:24:07;100668.50;;;5.20;100.00
47985;BME280;33753;52.912;-7.342;2023-04-21T01:26:35;100670.59;;;5.16;100.00
47985;BME280;33753;52.912;-7.342;2023-04-21T01:29:03;100669.16;;;5.12;100.00
47985;BME280;33753;52.912;-7.342;2023-04-21T01:31:31;100662.50;;;5.07;100.00
47985;BME280;33753;52.912;-7.342;2023-04-21T01:34:02;100660.34;;;5.00;100.00
47985;BME280;33753;52.912;-7.342;2023-04-21T01:36:30;100667.38;;;5.01;100.00
47985;BME280;33753;52.912;-7.342;2023-04-21T01:39:00;100669.63;;;4.96;100.00
47985;BME280;33753;52.912;-7.342;2023-04-21T01:41:28;100659.59;;;4.98;100.00
47985;BME280;33753;52.912;-7.342;2023-04-21T01:43:56;100653.97;;;5.01;100.00
47985;BME280;33753;52.912;-7.342;2023-04-21T01:46:25;100655.41;;;5.06;100.00
47985;BME280;33753;52.912;-7.342;2023-04-21T01:48:54;100654.56;;;5.05;100.00
47985;BME280;33753;52.912;-7.342;2023-04-21T01:51:22;100647.25;;;5.07;100.00
47985;BME280;33753;52.912;-7.342;2023-04-21T01:53:53;100649.09;;;5.07;100.00
47985;BME280;33753;52.912;-7.342;2023-04-21T01:56:24;100643.72;;;5.07;100.00
47985;BME280;33753;52.912;-7.342;2023-04-21T01:58:52;100628.94;;;5.12;100.00
47985;BME280;33753;52.912;-7.342;2023-04-21T02:01:20;100627.38;;;5.10;100.00
47985;BME280;33753;52.912;-7.342;2023-04-21T02:03:48;100618.34;;;5.11;100.00
47985;BME280;33753;52.912;-7.342;2023-04-21T02:06:17;100614.56;;;5.13;100.00
47985;BME280;33753;52.912;-7.342;2023-04-21T02:08:45;100611.47;;;5.18;100.00
47985;BME280;33753;52.912;-7.342;2023-04-21T02:11:13;100606.81;;;5.20;100.00
47985;BME280;33753;52.912;-7.342;2023-04-21T02:13:42;100612.38;;;5.28;100.00
47985;BME280;33753;52.912;-7.342;2023-04-21T02:16:12;100606.50;;;5.34;100.00
47985;BME280;33753;52.912;-7.342;2023-04-21T02:18:40;100588.59;;;5.45;100.00
47985;BME280;33753;52.912;-7.342;2023-04-21T02:21:10;100586.75;;;5.45;100.00
47985;BME280;33753;52.912;-7.342;2023-04-21T02:23:38;100589.16;;;5.48;100.00
47985;BME280;33753;52.912;-7.342;2023-04-21T02:26:07;100587.06;;;5.52;100.00
47985;BME280;33753;52.912;-7.342;2023-04-21T02:28:36;100579.03;;;5.52;100.00
47985;BME280;33753;52.912;-7.342;2023-04-21T02:31:05;100562.78;;;5.53;100.00
47985;BME280;33753;52.912;-7.342;2023-04-21T02:33:34;100565.03;;;5.58;100.00
47985;BME280;33753;52.912;-7.342;2023-04-21T02:36:02;100567.72;;;5.58;100.00
47985;BME280;33753;52.912;-7.342;2023-04-21T02:38:30;100569.00;;;5.54;100.00
47985;BME280;33753;52.912;-7.342;2023-04-21T02:40:59;100572.41;;;5.56;100.00
47985;BME280;33753;52.912;-7.342;2023-04-21T02:43:27;100572.69;;;5.53;100.00
47985;BME280;33753;52.912;-7.342;2023-04-21T02:45:56;100575.22;;;5.54;100.00
47985;BME280;33753;52.912;-7.342;2023-04-21T02:48:25;100575.59;;;5.50;100.00
47985;BME280;33753;52.912;-7.342;2023-04-21T02:50:54;100567.28;;;5.43;100.00
47985;BME280;33753;52.912;-7.342;2023-04-21T02:53:22;100590.69;;;5.41;100.00
47985;BME280;33753;52.912;-7.342;2023-04-21T02:55:51;100589.25;;;5.37;100.00
47985;BME280;33753;52.912;-7.342;2023-04-21T02:58:21;100594.75;;;5.35;100.00
47985;BME280;33753;52.912;-7.342;2023-04-21T03:01:00;100592.63;;;5.29;100.00
47985;BME280;33753;52.912;-7.342;2023-04-21T03:03:38;100582.59;;;5.31;100.00
47985;BME280;33753;52.912;-7.342;2023-04-21T03:06:06;100592.06;;;5.35;100.00
47985;BME280;33753;52.912;-7.342;2023-04-21T03:08:34;100607.31;;;5.35;100.00
47985;BME280;33753;52.912;-7.342;2023-04-21T03:11:04;100593.78;;;5.36;100.00
47985;BME280;33753;52.912;-7.342;2023-04-21T03:13:32;100591.09;;;5.36;100.00
47985;BME280;33753;52.912;-7.342;2023-04-21T03:16:01;100586.84;;;5.34;100.00
47985;BME280;33753;52.912;-7.342;2023-04-21T03:18:29;100581.88;;;5.29;100.00
47985;BME280;33753;52.912;-7.342;2023-04-21T03:21:02;100591.47;;;5.22;100.00
47985;BME280;33753;52.912;-7.342;2023-04-21T03:23:30;100571.13;;;5.19;100.00
47985;BME280;33753;52.912;-7.342;2023-04-21T03:25:59;100560.53;;;5.18;100.00
47985;BME280;33753;52.912;-7.342;2023-04-21T03:28:27;100552.03;;;5.13;100.00
47985;BME280;33753;52.912;-7.342;2023-04-21T03:30:56;100557.16;;;5.16;100.00
47985;BME280;33753;52.912;-7.342;2023-04-21T03:33:25;100549.66;;;5.19;100.00
47985;BME280;33753;52.912;-7.342;2023-04-21T03:35:53;100560.38;;;5.19;100.00
47985;BME280;33753;52.912;-7.342;2023-04-21T03:38:23;100560.13;;;5.23;100.00
47985;BME280;33753;52.912;-7.342;2023-04-21T03:40:51;100568.28;;;5.21;100.00
47985;BME280;33753;52.912;-7.342;2023-04-21T03:43:19;100571.94;;;5.20;100.00
47985;BME280;33753;52.912;-7.342;2023-04-21T03:45:48;100562.94;;;5.21;100.00
47985;BME280;33753;52.912;-7.342;2023-04-21T03:48:17;100558.53;;;5.20;100.00
47985;BME280;33753;52.912;-7.342;2023-04-21T03:50:46;100556.00;;;5.18;100.00
47985;BME280;33753;52.912;-7.342;2023-04-21T03:53:14;100572.09;;;5.18;100.00
47985;BME280;33753;52.912;-7.342;2023-04-21T03:55:43;100582.13;;;5.16;100.00
47985;BME280;33753;52.912;-7.342;2023-04-21T03:58:14;100570.53;;;5.16;100.00
47985;BME280;33753;52.912;-7.342;2023-04-21T04:00:43;100556.13;;;5.17;100.00
47985;BME280;33753;52.912;-7.342;2023-04-21T04:03:11;100556.69;;;5.11;100.00
47985;BME280;33753;52.912;-7.342;2023-04-21T04:05:39;100577.66;;;5.06;100.00
47985;BME280;33753;52.912;-7.342;2023-04-21T04:08:08;100578.34;;;4.98;100.00
47985;BME280;33753;52.912;-7.342;2023-04-21T04:10:36;100583.97;;;4.95;100.00
47985;BME280;33753;52.912;-7.342;2023-04-21T04:13:06;100585.34;;;4.89;100.00
47985;BME280;33753;52.912;-7.342;2023-04-21T04:15:34;100570.03;;;4.80;100.00
47985;BME280;33753;52.912;-7.342;2023-04-21T04:18:02;100569.06;;;4.81;100.00
47985;BME280;33753;52.912;-7.342;2023-04-21T04:20:30;100576.53;;;4.77;100.00
47985;BME280;33753;52.912;-7.342;2023-04-21T04:22:59;100574.50;;;4.70;100.00
47985;BME280;33753;52.912;-7.342;2023-04-21T04:25:27;100568.69;;;4.64;100.00
47985;BME280;33753;52.912;-7.342;2023-04-21T04:27:55;100568.50;;;4.56;100.00
47985;BME280;33753;52.912;-7.342;2023-04-21T04:30:24;100564.75;;;4.47;100.00
47985;BME280;33753;52.912;-7.342;2023-04-21T04:32:54;100557.97;;;4.43;100.00
47985;BME280;33753;52.912;-7.342;2023-04-21T04:35:23;100559.81;;;4.31;100.00
47985;BME280;33753;52.912;-7.342;2023-04-21T04:37:51;100562.06;;;4.26;100.00
47985;BME280;33753;52.912;-7.342;2023-04-21T04:40:20;100572.41;;;4.20;100.00
47985;BME280;33753;52.912;-7.342;2023-04-21T04:42:48;100572.94;;;4.13;100.00
47985;BME280;33753;52.912;-7.342;2023-04-21T04:45:17;100567.84;;;4.10;100.00
47985;BME280;33753;52.912;-7.342;2023-04-21T04:47:49;100554.81;;;4.06;100.00
47985;BME280;33753;52.912;-7.342;2023-04-21T04:50:18;100552.53;;;4.01;100.00
47985;BME280;33753;52.912;-7.342;2023-04-21T04:52:46;100541.25;;;3.97;100.00
47985;BME280;33753;52.912;-7.342;2023-04-21T04:55:15;100548.78;;;3.92;100.00
47985;BME280;33753;52.912;-7.342;2023-04-21T04:57:44;100548.44;;;3.86;100.00
47985;BME280;33753;52.912;-7.342;2023-04-21T05:00:13;100558.56;;;3.82;100.00
47985;BME280;33753;52.912;-7.342;2023-04-21T05:02:41;100560.75;;;3.77;100.00
47985;BME280;33753;52.912;-7.342;2023-04-21T05:05:11;100561.25;;;3.71;100.00
47985;BME280;33753;52.912;-7.342;2023-04-21T05:07:40;100554.44;;;3.67;100.00
47985;BME280;33753;52.912;-7.342;2023-04-21T05:10:08;100553.00;;;3.62;100.00
47985;BME280;33753;52.912;-7.342;2023-04-21T05:12:36;100560.56;;;3.57;100.00
47985;BME280;33753;52.912;-7.342;2023-04-21T05:15:05;100547.41;;;3.54;100.00
47985;BME280;33753;52.912;-7.342;2023-04-21T05:17:33;100553.25;;;3.48;100.00
47985;BME280;33753;52.912;-7.342;2023-04-21T05:20:02;100550.84;;;3.45;100.00
47985;BME280;33753;52.912;-7.342;2023-04-21T05:22:35;100562.25;;;3.36;100.00
47985;BME280;33753;52.912;-7.342;2023-04-21T05:25:03;100550.00;;;3.22;100.00
47985;BME280;33753;52.912;-7.342;2023-04-21T05:27:32;100545.88;;;3.06;100.00
47985;BME280;33753;52.912;-7.342;2023-04-21T05:30:00;100540.88;;;2.90;100.00
47985;BME280;33753;52.912;-7.342;2023-04-21T05:32:29;100522.19;;;2.90;100.00
47985;BME280;33753;52.912;-7.342;2023-04-21T05:34:57;100537.09;;;2.82;100.00
47985;BME280;33753;52.912;-7.342;2023-04-21T05:37:26;100536.47;;;2.78;100.00
47985;BME280;33753;52.912;-7.342;2023-04-21T05:39:55;100532.34;;;2.74;100.00
47985;BME280;33753;52.912;-7.342;2023-04-21T05:42:24;100525.06;;;2.65;100.00
47985;BME280;33753;52.912;-7.342;2023-04-21T05:44:52;100529.19;;;2.57;100.00
47985;BME280;33753;52.912;-7.342;2023-04-21T05:47:20;100522.38;;;2.53;100.00
47985;BME280;33753;52.912;-7.342;2023-04-21T05:49:50;100534.28;;;2.61;100.00
47985;BME280;33753;52.912;-7.342;2023-04-21T05:52:19;100527.63;;;2.66;100.00
47985;BME280;33753;52.912;-7.342;2023-04-21T05:54:47;100527.88;;;2.74;100.00
47985;BME280;33753;52.912;-7.342;2023-04-21T05:57:17;100530.44;;;2.87;100.00
47985;BME280;33753;52.912;-7.342;2023-04-21T05:59:46;100530.66;;;3.07;100.00
47985;BME280;33753;52.912;-7.342;2023-04-21T06:02:14;100540.38;;;3.42;100.00
47985;BME280;33753;52.912;-7.342;2023-04-21T06:04:43;100549.44;;;3.85;100.00
47985;BME280;33753;52.912;-7.342;2023-04-21T06:07:11;100543.41;;;4.36;100.00
47985;BME280;33753;52.912;-7.342;2023-04-21T06:09:42;100540.50;;;4.91;100.00
47985;BME280;33753;52.912;-7.342;2023-04-21T06:12:10;100543.28;;;5.42;100.00
47985;BME280;33753;52.912;-7.342;2023-04-21T06:14:40;100536.88;;;5.93;100.00
47985;BME280;33753;52.912;-7.342;2023-04-21T06:17:08;100544.00;;;6.33;100.00
47985;BME280;33753;52.912;-7.342;2023-04-21T06:19:37;100536.63;;;6.65;100.00
47985;BME280;33753;52.912;-7.342;2023-04-21T06:22:07;100526.34;;;6.98;100.00
47985;BME280;33753;52.912;-7.342;2023-04-21T06:24:35;100515.25;;;7.11;100.00
47985;BME280;33753;52.912;-7.342;2023-04-21T06:27:08;100516.97;;;7.39;100.00
47985;BME280;33753;52.912;-7.342;2023-04-21T06:29:36;100492.84;;;7.48;100.00
47985;BME280;33753;52.912;-7.342;2023-04-21T06:32:06;100489.94;;;7.59;100.00
47985;BME280;33753;52.912;-7.342;2023-04-21T06:34:34;100485.06;;;7.44;100.00
47985;BME280;33753;52.912;-7.342;2023-04-21T06:37:02;100489.91;;;7.13;100.00
47985;BME280;33753;52.912;-7.342;2023-04-21T06:39:31;100484.94;;;6.81;100.00
47985;BME280;33753;52.912;-7.342;2023-04-21T06:41:59;100483.47;;;6.49;100.00
47985;BME280;33753;52.912;-7.342;2023-04-21T06:44:28;100477.84;;;6.13;100.00
47985;BME280;33753;52.912;-7.342;2023-04-21T06:46:57;100479.53;;;6.14;100.00
47985;BME280;33753;52.912;-7.342;2023-04-21T06:49:27;100480.41;;;6.04;100.00
47985;BME280;33753;52.912;-7.342;2023-04-21T06:51:56;100481.50;;;5.92;100.00
47985;BME280;33753;52.912;-7.342;2023-04-21T06:54:24;100473.56;;;5.81;100.00
47985;BME280;33753;52.912;-7.342;2023-04-21T06:56:52;100475.53;;;5.69;100.00
47985;BME280;33753;52.912;-7.342;2023-04-21T06:59:21;100476.78;;;5.55;100.00
47985;BME280;33753;52.912;-7.342;2023-04-21T07:01:49;100467.19;;;5.52;100.00
47985;BME280;33753;52.912;-7.342;2023-04-21T07:04:18;100466.34;;;5.52;100.00
47985;BME280;33753;52.912;-7.342;2023-04-21T07:06:48;100469.31;;;5.49;100.00
47985;BME280;33753;52.912;-7.342;2023-04-21T07:09:16;100456.16;;;5.56;100.00
47985;BME280;33753;52.912;-7.342;2023-04-21T07:11:44;100471.88;;;5.60;100.00
47985;BME280;33753;52.912;-7.342;2023-04-21T07:14:12;100460.28;;;5.69;100.00
47985;BME280;33753;52.912;-7.342;2023-04-21T07:16:41;100467.63;;;5.87;100.00
47985;BME280;33753;52.912;-7.342;2023-04-21T07:19:09;100460.47;;;5.97;100.00
47985;BME280;33753;52.912;-7.342;2023-04-21T07:21:37;100467.97;;;6.13;100.00
47985;BME280;33753;52.912;-7.342;2023-04-21T07:24:08;100462.81;;;6.39;100.00
47985;BME280;33753;52.912;-7.342;2023-04-21T07:26:36;100453.31;;;6.55;100.00
47985;BME280;33753;52.912;-7.342;2023-04-21T07:29:04;100457.78;;;6.64;100.00
47985;BME280;33753;52.912;-7.342;2023-04-21T07:31:32;100451.94;;;6.79;100.00
47985;BME280;33753;52.912;-7.342;2023-04-21T07:34:01;100459.84;;;6.90;100.00
47985;BME280;33753;52.912;-7.342;2023-04-21T07:36:29;100463.63;;;6.97;100.00
47985;BME280;33753;52.912;-7.342;2023-04-21T07:38:58;100461.03;;;7.05;100.00
47985;BME280;33753;52.912;-7.342;2023-04-21T07:41:28;100453.78;;;7.16;100.00
47985;BME280;33753;52.912;-7.342;2023-04-21T07:43:56;100459.06;;;7.35;100.00
47985;BME280;33753;52.912;-7.342;2023-04-21T07:46:25;100458.94;;;7.91;100.00
47985;BME280;33753;52.912;-7.342;2023-04-21T07:48:56;100451.81;;;8.70;100.00
47985;BME280;33753;52.912;-7.342;2023-04-21T07:51:25;100452.50;;;9.49;100.00
47985;BME280;33753;52.912;-7.342;2023-04-21T07:53:54;100452.25;;;10.18;100.00
47985;BME280;33753;52.912;-7.342;2023-04-21T07:56:22;100433.28;;;10.76;100.00
47985;BME280;33753;52.912;-7.342;2023-04-21T07:58:52;100409.66;;;11.33;100.00
47985;BME280;33753;52.912;-7.342;2023-04-21T08:01:21;100392.13;;;11.75;100.00
47985;BME280;33753;52.912;-7.342;2023-04-21T08:03:50;100388.16;;;12.09;100.00
47985;BME280;33753;52.912;-7.342;2023-04-21T08:06:18;100366.88;;;12.36;100.00
47985;BME280;33753;52.912;-7.342;2023-04-21T08:08:47;100360.91;;;12.55;100.00
47985;BME280;33753;52.912;-7.342;2023-04-21T08:11:15;100347.22;;;12.78;100.00
47985;BME280;33753;52.912;-7.342;2023-04-21T08:13:44;100346.84;;;12.96;100.00
47985;BME280;33753;52.912;-7.342;2023-04-21T08:16:13;100355.19;;;12.95;100.00
47985;BME280;33753;52.912;-7.342;2023-04-21T08:18:42;100363.81;;;13.20;100.00
47985;BME280;33753;52.912;-7.342;2023-04-21T08:21:10;100344.69;;;13.43;100.00
47985;BME280;33753;52.912;-7.342;2023-04-21T08:23:39;100359.50;;;13.62;100.00
47985;BME280;33753;52.912;-7.342;2023-04-21T08:26:08;100332.84;;;13.51;100.00
47985;BME280;33753;52.912;-7.342;2023-04-21T08:28:36;100343.56;;;13.81;100.00
47985;BME280;33753;52.912;-7.342;2023-04-21T08:31:05;100334.25;;;13.69;100.00
47985;BME280;33753;52.912;-7.342;2023-04-21T08:33:34;100327.41;;;13.51;100.00
47985;BME280;33753;52.912;-7.342;2023-04-21T08:36:15;100339.91;;;13.30;100.00
47985;BME280;33753;52.912;-7.342;2023-04-21T08:38:55;100321.81;;;13.01;100.00
47985;BME280;33753;52.912;-7.342;2023-04-21T08:41:24;100334.69;;;12.62;100.00
47985;BME280;33753;52.912;-7.342;2023-04-21T08:43:52;100326.91;;;12.74;100.00
47985;BME280;33753;52.912;-7.342;2023-04-21T08:46:20;100323.50;;;13.02;100.00
47985;BME280;33753;52.912;-7.342;2023-04-21T08:48:51;100313.50;;;13.24;100.00
47985;BME280;33753;52.912;-7.342;2023-04-21T08:51:21;100324.66;;;13.29;100.00
47985;BME280;33753;52.912;-7.342;2023-04-21T08:53:50;100326.94;;;13.11;100.00
47985;BME280;33753;52.912;-7.342;2023-04-21T08:56:18;100325.50;;;12.93;100.00
47985;BME280;33753;52.912;-7.342;2023-04-21T08:58:46;100324.94;;;13.20;100.00
47985;BME280;33753;52.912;-7.342;2023-04-21T09:01:15;100312.47;;;13.25;100.00
47985;BME280;33753;52.912;-7.342;2023-04-21T09:03:43;100307.16;;;13.17;100.00
47985;BME280;33753;52.912;-7.342;2023-04-21T09:06:13;100320.81;;;12.87;100.00
47985;BME280;33753;52.912;-7.342;2023-04-21T09:08:43;100312.19;;;13.20;100.00
47985;BME280;33753;52.912;-7.342;2023-04-21T09:11:12;100299.31;;;13.65;100.00
47985;BME280;33753;52.912;-7.342;2023-04-21T09:13:41;100291.28;;;13.79;100.00
47985;BME280;33753;52.912;-7.342;2023-04-21T09:16:16;100284.16;;;14.06;100.00
47985;BME280;33753;52.912;-7.342;2023-04-21T09:18:46;100263.38;;;13.98;100.00
47985;BME280;33753;52.912;-7.342;2023-04-21T09:21:16;100254.47;;;14.11;100.00
47985;BME280;33753;52.912;-7.342;2023-04-21T09:23:45;100223.25;;;14.00;100.00
47985;BME280;33753;52.912;-7.342;2023-04-21T09:26:14;100234.19;;;14.14;100.00
47985;BME280;33753;52.912;-7.342;2023-04-21T09:28:44;100236.63;;;14.02;100.00
47985;BME280;33753;52.912;-7.342;2023-04-21T09:31:13;100244.75;;;13.95;100.00
47985;BME280;33753;52.912;-7.342;2023-04-21T09:33:46;100236.19;;;13.98;100.00
47985;BME280;33753;52.912;-7.342;2023-04-21T09:36:26;100216.72;;;13.67;100.00
47985;BME280;33753;52.912;-7.342;2023-04-21T09:38:56;100238.81;;;13.85;100.00
47985;BME280;33753;52.912;-7.342;2023-04-21T09:41:27;100241.06;;;13.75;100.00
47985;BME280;33753;52.912;-7.342;2023-04-21T09:43:55;100239.91;;;13.91;100.00
47985;BME280;33753;52.912;-7.342;2023-04-21T09:46:27;100244.47;;;13.83;100.00
47985;BME280;33753;52.912;-7.342;2023-04-21T09:48:57;100246.78;;;13.58;100.00
47985;BME280;33753;52.912;-7.342;2023-04-21T09:51:28;100243.44;;;13.35;100.00
47985;BME280;33753;52.912;-7.342;2023-04-21T09:54:17;100234.72;;;12.81;100.00
47985;BME280;33753;52.912;-7.342;2023-04-21T09:56:57;100219.38;;;12.37;100.00
47985;BME280;33753;52.912;-7.342;2023-04-21T09:59:28;100229.94;;;12.32;100.00
47985;BME280;33753;52.912;-7.342;2023-04-21T10:01:57;100238.72;;;12.49;100.00
47985;BME280;33753;52.912;-7.342;2023-04-21T10:04:27;100220.72;;;12.62;100.00
47985;BME280;33753;52.912;-7.342;2023-04-21T10:06:59;100238.97;;;12.69;100.00
47985;BME280;33753;52.912;-7.342;2023-04-21T10:09:29;100226.00;;;12.86;100.00
47985;BME280;33753;52.912;-7.342;2023-04-21T10:12:00;100220.06;;;13.19;100.00
47985;BME280;33753;52.912;-7.342;2023-04-21T10:14:29;100226.09;;;13.14;100.00
47985;BME280;33753;52.912;-7.342;2023-04-21T10:17:02;100232.28;;;12.86;100.00
47985;BME280;33753;52.912;-7.342;2023-04-21T10:19:34;100236.72;;;12.57;100.00
47985;BME280;33753;52.912;-7.342;2023-04-21T10:22:07;100234.09;;;12.27;100.00
47985;BME280;33753;52.912;-7.342;2023-04-21T10:24:36;100215.94;;;12.13;100.00
47985;BME280;33753;52.912;-7.342;2023-04-21T10:27:08;100232.03;;;12.00;100.00
47985;BME280;33753;52.912;-7.342;2023-04-21T10:29:36;100223.66;;;11.71;100.00
47985;BME280;33753;52.912;-7.342;2023-04-21T10:32:38;100221.13;;;11.70;100.00
47985;BME280;33753;52.912;-7.342;2023-04-21T10:35:10;100215.78;;;11.62;100.00
47985;BME280;33753;52.912;-7.342;2023-04-21T10:37:42;100203.72;;;11.49;100.00
47985;BME280;33753;52.912;-7.342;2023-04-21T10:45:54;100200.19;;;11.64;100.00
47985;BME280;33753;52.912;-7.342;2023-04-21T10:48:22;100198.25;;;11.72;100.00
47985;BME280;33753;52.912;-7.342;2023-04-21T10:50:53;100188.44;;;11.56;100.00
47985;BME280;33753;52.912;-7.342;2023-04-21T10:53:23;100189.25;;;11.57;100.00
47985;BME280;33753;52.912;-7.342;2023-04-21T10:55:52;100167.69;;;11.64;100.00
47985;BME280;33753;52.912;-7.342;2023-04-21T10:58:20;100177.06;;;11.76;100.00
47985;BME280;33753;52.912;-7.342;2023-04-21T11:00:52;100170.88;;;11.97;100.00
47985;BME280;33753;52.912;-7.342;2023-04-21T11:03:21;100173.13;;;12.23;100.00
47985;BME280;33753;52.912;-7.342;2023-04-21T11:05:49;100157.94;;;12.87;100.00
47985;BME280;33753;52.912;-7.342;2023-04-21T11:08:17;100153.94;;;13.05;100.00
47985;BME280;33753;52.912;-7.342;2023-04-21T11:10:49;100149.16;;;13.07;100.00
47985;BME280;33753;52.912;-7.342;2023-04-21T11:13:19;100126.50;;;13.21;100.00
47985;BME280;33753;52.912;-7.342;2023-04-21T11:15:58;100123.94;;;13.35;100.00
47985;BME280;33753;52.912;-7.342;2023-04-21T11:18:33;100114.34;;;13.74;100.00
47985;BME280;33753;52.912;-7.342;2023-04-21T11:21:07;100112.59;;;13.59;100.00
47985;BME280;33753;52.912;-7.342;2023-04-21T11:23:38;100111.91;;;13.51;100.00
47985;BME280;33753;52.912;-7.342;2023-04-21T11:26:08;100125.31;;;13.30;100.00
47985;BME280;33753;52.912;-7.342;2023-04-21T11:28:37;100116.91;;;13.25;100.00
47985;BME280;33753;52.912;-7.342;2023-04-21T11:31:07;100108.91;;;13.17;100.00
47985;BME280;33753;52.912;-7.342;2023-04-21T11:33:36;100112.47;;;13.46;100.00
47985;BME280;33753;52.912;-7.342;2023-04-21T11:36:04;100097.09;;;13.60;100.00
47985;BME280;33753;52.912;-7.342;2023-04-21T11:38:37;100089.34;;;13.57;100.00
47985;BME280;33753;52.912;-7.342;2023-04-21T11:41:05;100104.19;;;13.54;100.00
47985;BME280;33753;52.912;-7.342;2023-04-21T11:43:36;100106.94;;;13.32;100.00
47985;BME280;33753;52.912;-7.342;2023-04-21T11:46:12;100100.88;;;13.30;100.00
47985;BME280;33753;52.912;-7.342;2023-04-21T11:48:41;100108.38;;;13.92;100.00
47985;BME280;33753;52.912;-7.342;2023-04-21T11:51:16;100096.91;;;14.10;100.00
47985;BME280;33753;52.912;-7.342;2023-04-21T11:53:47;100078.63;;;14.52;100.00
47985;BME280;33753;52.912;-7.342;2023-04-21T11:56:16;100072.72;;;14.35;100.00
47985;BME280;33753;52.912;-7.342;2023-04-21T11:58:46;100097.41;;;14.33;100.00
47985;BME280;33753;52.912;-7.342;2023-04-21T12:01:14;100069.78;;;14.30;100.00
47985;BME280;33753;52.912;-7.342;2023-04-21T12:03:49;100066.47;;;14.48;100.00
47985;BME280;33753;52.912;-7.342;2023-04-21T12:06:21;100061.72;;;14.63;100.00
47985;BME280;33753;52.912;-7.342;2023-04-21T12:08:54;100057.72;;;14.79;100.00
47985;BME280;33753;52.912;-7.342;2023-04-21T12:11:23;100049.34;;;14.81;100.00
47985;BME280;33753;52.912;-7.342;2023-04-21T12:13:54;100044.53;;;14.96;100.00
47985;BME280;33753;52.912;-7.342;2023-04-21T12:16:23;100044.31;;;14.91;100.00
47985;BME280;33753;52.912;-7.342;2023-04-21T12:18:52;100049.97;;;14.83;100.00
47985;BME280;33753;52.912;-7.342;2023-04-21T12:21:25;100045.72;;;14.60;100.00
47985;BME280;33753;52.912;-7.342;2023-04-21T12:23:53;100066.03;;;14.51;100.00
47985;BME280;33753;52.912;-7.342;2023-04-21T12:26:21;100038.81;;;14.31;100.00
47985;BME280;33753;52.912;-7.342;2023-04-21T12:28:50;100047.75;;;14.05;100.00
47985;BME280;33753;52.912;-7.342;2023-04-21T12:31:20;100036.41;;;13.88;100.00
47985;BME280;33753;52.912;-7.342;2023-04-21T12:33:48;100023.97;;;13.72;100.00
47985;BME280;33753;52.912;-7.342;2023-04-21T12:36:17;100031.56;;;13.83;100.00
47985;BME280;33753;52.912;-7.342;2023-04-21T12:38:45;100006.88;;;13.78;100.00
47985;BME280;33753;52.912;-7.342;2023-04-21T12:41:13;100025.94;;;13.43;100.00
47985;BME280;33753;52.912;-7.342;2023-04-21T12:43:41;100026.13;;;13.35;100.00
47985;BME280;33753;52.912;-7.342;2023-04-21T12:46:10;99994.44;;;13.20;100.00
47985;BME280;33753;52.912;-7.342;2023-04-21T12:48:39;100010.13;;;13.53;100.00
47985;BME280;33753;52.912;-7.342;2023-04-21T12:51:08;99987.03;;;13.84;100.00
47985;BME280;33753;52.912;-7.342;2023-04-21T12:53:36;99984.97;;;13.99;100.00